Terminal Aerodrome Forecast
Issued by NWS

Home | Current Version | Previous Version | Text Only | Print | Product List | Glossary On
Versions: 1 2 3 4 5 6 7 8 9 10 11 12 13
000
FTUS45 KRIW 292339
TAFCPR
TAF
KCPR 292339Z 3000/3024 23014G24KT P6SM FEW110 SCT200
     FM301500 22022G30KT P6SM SCT110 BKN200
     FM302000 23018G30KT P6SM VCTS SCT080CB BKN120=

USA.gov is the U.S. government's official web portal to all federal, state and local government web resources and services.